createdAt,value
2018-01-20T00:02:10.561Z,89.68
2018-01-20T00:04:38.110Z,89.51
2018-01-20T00:07:05.612Z,89.58
2018-01-20T00:09:45.046Z,89.60
2018-01-20T00:12:12.585Z,89.89
2018-01-20T00:14:40.124Z,90.01
2018-01-20T00:17:13.284Z,89.66
2018-01-20T00:19:40.812Z,89.54
2018-01-20T00:22:08.353Z,89.17
2018-01-20T00:24:41.486Z,89.42
2018-01-20T00:27:08.991Z,88.91
2018-01-20T00:29:36.532Z,88.86
2018-01-20T00:32:04.097Z,88.64
2018-01-20T00:34:31.660Z,88.61
2018-01-20T00:36:59.189Z,88.83
2018-01-20T00:39:26.913Z,88.07
2018-01-20T00:41:54.428Z,88.27
2018-01-20T00:44:21.955Z,89.33
2018-01-20T00:46:49.489Z,88.87
2018-01-20T00:49:16.991Z,88.68
2018-01-20T00:51:44.574Z,88.93
2018-01-20T00:54:12.082Z,89.01
2018-01-20T00:56:39.609Z,88.97
2018-01-20T00:59:07.161Z,89.25
2018-01-20T01:01:34.672Z,89.10
2018-01-20T01:04:02.247Z,89.49
2018-01-20T01:06:29.780Z,89.50
2018-01-20T01:08:57.286Z,89.94
2018-01-20T01:11:24.812Z,89.48
2018-01-20T01:13:52.360Z,89.79
2018-01-20T01:16:19.912Z,90.18
2018-01-20T01:18:47.469Z,90.37
2018-01-20T01:21:14.979Z,90.03
2018-01-20T01:23:42.508Z,89.86
2018-01-20T01:26:10.057Z,89.85
2018-01-20T01:28:37.592Z,89.93
2018-01-20T01:31:05.141Z,89.79
2018-01-20T01:33:32.799Z,89.91
2018-01-20T01:36:00.325Z,89.84
2018-01-20T01:38:27.872Z,89.72
2018-01-20T01:40:55.429Z,89.84
2018-01-20T01:43:22.945Z,89.53
2018-01-20T01:45:50.471Z,89.00
2018-01-20T01:48:18.005Z,89.16
2018-01-20T01:50:45.545Z,88.97
2018-01-20T01:53:13.079Z,88.68
2018-01-20T01:55:40.650Z,89.09
2018-01-20T01:58:08.158Z,88.50
2018-01-20T02:00:35.705Z,89.45
2018-01-20T02:03:03.257Z,88.93
2018-01-20T02:05:30.842Z,88.61
2018-01-20T02:07:58.361Z,88.28
2018-01-20T02:10:25.881Z,88.82
2018-01-20T02:12:53.628Z,88.27
2018-01-20T02:15:21.144Z,88.10
2018-01-20T02:17:48.740Z,89.00
2018-01-20T02:20:16.272Z,88.42
2018-01-20T02:22:43.796Z,88.11
2018-01-20T02:25:11.344Z,88.64
2018-01-20T02:27:38.887Z,88.49
2018-01-20T02:30:06.474Z,88.18
2018-01-20T02:32:33.990Z,88.14
2018-01-20T02:35:06.449Z,88.16
2018-01-20T02:37:33.989Z,88.07
2018-01-20T02:40:01.557Z,87.91
2018-01-20T02:42:29.277Z,88.10
2018-01-20T02:44:56.792Z,88.16
2018-01-20T02:47:24.333Z,88.48
2018-01-20T02:49:51.869Z,88.09
2018-01-20T02:52:19.393Z,87.85
2018-01-20T02:54:46.930Z,88.10
2018-01-20T02:57:14.473Z,88.34
2018-01-20T02:59:42.018Z,88.28
2018-01-20T03:02:09.575Z,88.83
2018-01-20T03:04:37.100Z,88.74
2018-01-20T03:07:04.642Z,88.87
2018-01-20T03:09:32.213Z,88.71
2018-01-20T03:11:59.765Z,88.88
2018-01-20T03:14:27.301Z,88.93
2018-01-20T03:16:54.813Z,89.13
2018-01-20T03:19:22.362Z,88.87
2018-01-20T03:21:49.874Z,88.67
2018-01-20T03:24:17.417Z,88.37
2018-01-20T03:26:44.929Z,88.57
2018-01-20T03:29:12.482Z,88.76
2018-01-20T03:31:40.266Z,88.87
2018-01-20T03:34:07.789Z,88.63
2018-01-20T03:36:35.301Z,88.63
2018-01-20T03:39:02.832Z,88.74
2018-01-20T03:41:30.733Z,88.76
2018-01-20T03:43:58.269Z,88.88
2018-01-20T03:46:25.820Z,88.84
2018-01-20T03:48:53.348Z,89.31
2018-01-20T03:51:20.857Z,89.21
2018-01-20T03:53:48.377Z,89.17
2018-01-20T03:56:15.901Z,89.46
2018-01-20T03:58:43.433Z,89.54
2018-01-20T04:01:10.951Z,89.31
2018-01-20T04:03:38.485Z,89.45
2018-01-20T04:06:06.374Z,89.83
2018-01-20T04:08:33.925Z,89.20
2018-01-20T04:11:01.465Z,89.04
2018-01-20T04:13:29.000Z,89.12
2018-01-20T04:15:56.552Z,89.35
2018-01-20T04:18:24.306Z,89.14
2018-01-20T04:20:51.813Z,89.00
2018-01-20T04:23:19.336Z,88.98
2018-01-20T04:25:46.865Z,88.78
2018-01-20T04:28:14.397Z,89.17
2018-01-20T04:30:41.938Z,89.18
2018-01-20T04:33:09.509Z,89.36
2018-01-20T04:35:37.041Z,89.51
2018-01-20T04:38:04.589Z,89.54
2018-01-20T04:40:32.133Z,89.53
2018-01-20T04:42:59.657Z,89.39
2018-01-20T04:45:27.193Z,89.34
2018-01-20T04:47:54.706Z,89.42
2018-01-20T04:50:22.251Z,89.45
2018-01-20T04:52:49.791Z,89.74
2018-01-20T04:55:17.299Z,89.75
2018-01-20T04:57:44.817Z,89.87
2018-01-20T05:00:12.364Z,89.92
2018-01-20T05:02:39.916Z,89.75
2018-01-20T05:05:08.310Z,89.91
2018-01-20T05:07:35.842Z,90.00
2018-01-20T05:10:03.369Z,90.04
2018-01-20T05:12:30.953Z,90.18
2018-01-20T05:14:58.492Z,90.09
2018-01-20T05:17:26.033Z,90.10
2018-01-20T05:19:53.592Z,90.02
2018-01-20T05:22:21.109Z,89.95
2018-01-20T05:24:48.637Z,89.82
2018-01-20T05:27:16.181Z,90.06
2018-01-20T05:29:43.711Z,90.11
2018-01-20T05:32:11.249Z,89.72
2018-01-20T05:34:39.022Z,89.73
2018-01-20T05:37:06.557Z,89.71
2018-01-20T05:39:34.073Z,89.50
2018-01-20T05:42:01.641Z,89.75
2018-01-20T05:44:29.191Z,89.57
2018-01-20T05:46:56.725Z,89.64
2018-01-20T05:49:24.297Z,89.66
2018-01-20T05:51:51.829Z,89.69
2018-01-20T05:54:19.368Z,89.89
2018-01-20T05:56:46.913Z,89.88
2018-01-20T05:59:14.429Z,89.86
2018-01-20T06:01:41.938Z,89.80
2018-01-20T06:04:09.493Z,89.92
2018-01-20T06:06:37.003Z,89.67
2018-01-20T06:09:04.565Z,89.77
2018-01-20T06:11:32.144Z,89.52
2018-01-20T06:13:59.690Z,89.64
2018-01-20T06:16:27.222Z,89.84
2018-01-20T06:18:54.973Z,89.84
2018-01-20T06:21:22.489Z,89.80
2018-01-20T06:23:50.009Z,89.68
2018-01-20T06:26:17.566Z,89.55
2018-01-20T06:28:45.125Z,89.56
2018-01-20T06:31:12.659Z,89.54
2018-01-20T06:33:40.177Z,89.54
2018-01-20T06:36:07.698Z,89.89
2018-01-20T06:38:35.232Z,89.85
2018-01-20T06:41:02.924Z,89.93
2018-01-20T06:43:30.480Z,89.88
2018-01-20T06:45:58.044Z,90.02
2018-01-20T06:48:25.621Z,90.17
2018-01-20T06:50:53.181Z,90.08
2018-01-20T06:53:20.781Z,90.09
2018-01-20T06:55:48.283Z,89.90
2018-01-20T06:58:15.799Z,89.98
2018-01-20T07:00:43.402Z,89.81
2018-01-20T07:03:10.977Z,89.81
2018-01-20T07:05:38.489Z,89.74
2018-01-20T07:08:06.020Z,90.04
2018-01-20T07:10:33.661Z,89.92
2018-01-20T07:13:01.299Z,90.16
2018-01-20T07:15:29.066Z,89.93
2018-01-20T07:17:56.572Z,89.81
2018-01-20T07:20:24.083Z,90.06
2018-01-20T07:22:51.701Z,89.78
2018-01-20T07:25:19.217Z,89.67
2018-01-20T07:27:46.778Z,89.79
2018-01-20T07:30:14.400Z,90.01
2018-01-20T07:32:41.973Z,89.90
2018-01-20T07:35:09.539Z,89.79
2018-01-20T07:37:37.100Z,89.81
2018-01-20T07:40:11.261Z,89.62
2018-01-20T07:42:39.007Z,89.61
2018-01-20T07:45:06.655Z,89.53
2018-01-20T07:47:34.183Z,89.51
2018-01-20T07:50:01.730Z,89.64
2018-01-20T07:52:29.262Z,89.24
2018-01-20T07:54:56.885Z,89.33
2018-01-20T07:57:24.720Z,89.19
2018-01-20T07:59:52.293Z,89.24
2018-01-20T08:02:19.843Z,88.95
2018-01-20T08:04:47.378Z,88.95
2018-01-20T08:07:14.909Z,89.35
2018-01-20T08:09:42.661Z,89.03
2018-01-20T08:12:10.184Z,89.02
2018-01-20T08:14:37.717Z,88.65
2018-01-20T08:17:05.312Z,88.33
2018-01-20T08:19:32.845Z,88.07
2018-01-20T08:22:00.416Z,88.38
2018-01-20T08:24:28.145Z,88.09
2018-01-20T08:26:55.660Z,88.16
2018-01-20T08:29:23.220Z,88.29
2018-01-20T08:31:50.740Z,88.35
2018-01-20T08:34:18.284Z,87.99
2018-01-20T08:36:45.798Z,87.81
2018-01-20T08:39:13.345Z,87.75
2018-01-20T08:41:40.896Z,87.75
2018-01-20T08:44:08.418Z,87.43
2018-01-20T08:46:35.973Z,87.47
2018-01-20T08:49:03.538Z,87.38
2018-01-20T08:51:31.050Z,86.93
2018-01-20T08:53:58.624Z,87.17
2018-01-20T08:56:26.208Z,86.85
2018-01-20T08:58:53.845Z,87.18
2018-01-20T09:01:21.387Z,86.81
2018-01-20T09:03:48.938Z,86.58
2018-01-20T09:06:16.481Z,86.46
2018-01-20T09:08:44.918Z,86.22
2018-01-20T09:11:12.449Z,86.58
2018-01-20T09:13:39.958Z,86.24
2018-01-20T09:16:07.568Z,86.23
2018-01-20T09:18:35.120Z,86.37
2018-01-20T09:21:02.660Z,86.29
2018-01-20T09:23:30.204Z,86.48
2018-01-20T09:25:57.796Z,86.76
2018-01-20T09:28:25.333Z,87.12
2018-01-20T09:30:52.927Z,86.52
2018-01-20T09:33:20.442Z,87.05
2018-01-20T09:35:47.949Z,87.30
2018-01-20T09:38:15.497Z,87.21
2018-01-20T09:40:43.040Z,87.45
2018-01-20T09:43:10.693Z,87.93
2018-01-20T09:45:38.219Z,88.38
2018-01-20T09:48:05.740Z,88.34
2018-01-20T09:50:33.444Z,88.53
2018-01-20T09:53:00.963Z,88.55
2018-01-20T09:55:28.511Z,88.50
2018-01-20T09:57:56.065Z,88.49
2018-01-20T10:00:23.623Z,88.03
2018-01-20T10:02:51.199Z,87.84
2018-01-20T10:05:18.714Z,88.26
2018-01-20T10:07:46.246Z,87.91
2018-01-20T10:10:13.801Z,88.22
2018-01-20T10:12:41.324Z,88.14
2018-01-20T10:15:08.845Z,88.58
2018-01-20T10:17:36.568Z,88.53
2018-01-20T10:20:04.090Z,87.94
2018-01-20T10:22:31.593Z,87.39
2018-01-20T10:24:59.349Z,87.32
2018-01-20T10:27:26.882Z,86.97
2018-01-20T10:29:56.291Z,86.87
2018-01-20T10:32:23.869Z,86.48
2018-01-20T10:34:51.730Z,86.20
2018-01-20T10:37:19.253Z,86.19
2018-01-20T10:39:46.790Z,85.99
2018-01-20T10:42:14.316Z,85.00
2018-01-20T10:44:41.869Z,85.36
2018-01-20T10:47:09.399Z,84.74
2018-01-20T10:49:36.935Z,83.70
2018-01-20T10:52:04.527Z,84.44
2018-01-20T10:54:32.836Z,84.30
2018-01-20T10:57:00.375Z,83.98
2018-01-20T10:59:27.937Z,84.32
2018-01-20T11:01:55.486Z,84.31
2018-01-20T11:04:23.061Z,84.35
2018-01-20T11:06:50.619Z,83.86
2018-01-20T11:09:18.171Z,82.49
2018-01-20T11:11:45.690Z,82.29
2018-01-20T11:14:13.248Z,82.08
2018-01-20T11:16:40.819Z,80.65
2018-01-20T11:19:08.354Z,81.08
2018-01-20T11:21:35.897Z,80.53
2018-01-20T11:24:03.468Z,81.00
2018-01-20T11:26:31.049Z,80.66
2018-01-20T11:28:58.586Z,79.99
2018-01-20T11:31:26.143Z,80.86
2018-01-20T11:33:53.718Z,80.77
2018-01-20T11:36:21.254Z,81.95
2018-01-20T11:38:48.773Z,82.47
2018-01-20T11:41:16.330Z,81.89
2018-01-20T11:43:43.890Z,81.76
2018-01-20T11:46:11.433Z,82.08
2018-01-20T11:48:38.981Z,82.02
2018-01-20T11:51:06.525Z,83.43
2018-01-20T11:53:34.051Z,83.19
2018-01-20T11:56:01.589Z,83.52
2018-01-20T11:58:29.132Z,85.02
2018-01-20T12:00:56.673Z,82.25
2018-01-20T12:03:24.197Z,82.24
2018-01-20T12:05:51.844Z,81.90
2018-01-20T12:08:19.386Z,83.21
2018-01-20T12:10:46.905Z,82.23
2018-01-20T12:13:14.437Z,82.40
2018-01-20T12:15:41.970Z,80.19
2018-01-20T12:18:09.512Z,80.55
2018-01-20T12:20:37.209Z,81.76
2018-01-20T12:23:04.731Z,81.93
2018-01-20T12:25:32.254Z,82.69
2018-01-20T12:27:59.787Z,82.95
2018-01-20T12:30:27.361Z,83.00
2018-01-20T12:32:54.922Z,82.59
2018-01-20T12:35:22.441Z,83.09
2018-01-20T12:37:49.976Z,82.96
2018-01-20T12:40:17.522Z,82.77
2018-01-20T12:42:45.065Z,81.34
2018-01-20T12:45:12.602Z,81.67
2018-01-20T12:47:40.129Z,80.75
2018-01-20T12:50:07.656Z,80.46
2018-01-20T12:52:35.209Z,79.77
2018-01-20T12:55:02.793Z,78.77
2018-01-20T12:57:30.371Z,78.02
2018-01-20T12:59:57.890Z,79.26
2018-01-20T13:02:25.425Z,79.06
2018-01-20T13:04:53.005Z,79.47
2018-01-20T13:07:20.523Z,80.37
2018-01-20T13:09:48.033Z,80.16
2018-01-20T13:12:15.756Z,80.67
2018-01-20T13:14:43.333Z,80.74
2018-01-20T13:17:10.891Z,80.91
2018-01-20T13:19:38.456Z,79.78
2018-01-20T13:22:05.987Z,79.25
2018-01-20T13:24:33.517Z,79.31
2018-01-20T13:27:01.045Z,79.24
2018-01-20T13:29:28.589Z,79.98
2018-01-20T13:31:56.165Z,79.74
2018-01-20T13:34:23.691Z,79.41
2018-01-20T13:36:51.213Z,79.77
2018-01-20T13:39:18.770Z,80.21
2018-01-20T13:41:46.312Z,81.08
2018-01-20T13:44:13.834Z,80.89
2018-01-20T13:46:41.448Z,80.94
2018-01-20T13:49:08.985Z,80.53
2018-01-20T13:51:36.503Z,80.74
2018-01-20T13:54:04.061Z,81.74
2018-01-20T13:56:31.569Z,80.71
2018-01-20T13:58:59.113Z,80.28
2018-01-20T14:01:26.910Z,79.68
2018-01-20T14:03:54.465Z,79.24
2018-01-20T14:06:21.969Z,79.79
2018-01-20T14:08:49.513Z,79.03
2018-01-20T14:11:17.035Z,79.07
2018-01-20T14:13:44.549Z,79.34
2018-01-20T14:16:12.109Z,79.52
2018-01-20T14:18:39.673Z,79.92
2018-01-20T14:21:07.210Z,80.53
2018-01-20T14:23:34.744Z,80.33
2018-01-20T14:26:02.321Z,80.48
2018-01-20T14:28:30.026Z,81.25
2018-01-20T14:30:57.588Z,81.23
2018-01-20T14:33:25.682Z,81.71
2018-01-20T14:35:56.159Z,81.46
2018-01-20T14:38:23.935Z,82.01
2018-01-20T14:40:51.506Z,82.64
2018-01-20T14:43:19.050Z,81.76
2018-01-20T14:45:46.593Z,81.87
2018-01-20T14:48:14.153Z,81.87
2018-01-20T14:50:41.733Z,81.71
2018-01-20T14:53:09.260Z,82.33
2018-01-20T14:55:36.825Z,82.58
2018-01-20T14:58:04.395Z,82.86
2018-01-20T15:00:32.052Z,82.94
2018-01-20T15:02:59.597Z,82.81
2018-01-20T15:05:27.118Z,83.09
2018-01-20T15:07:54.617Z,83.38
2018-01-20T15:10:22.164Z,83.40
2018-01-20T15:12:49.712Z,83.44
2018-01-20T15:15:17.241Z,83.89
2018-01-20T15:17:44.856Z,83.76
2018-01-20T15:20:12.385Z,83.95
2018-01-20T15:22:39.950Z,84.19
2018-01-20T15:25:08.096Z,84.15
2018-01-20T15:27:35.911Z,83.92
2018-01-20T15:30:03.424Z,83.93
2018-01-20T15:32:30.926Z,84.07
2018-01-20T15:34:58.583Z,84.10
2018-01-20T15:37:26.081Z,83.91
2018-01-20T15:39:53.610Z,83.56
2018-01-20T15:42:21.214Z,83.48
2018-01-20T15:44:48.742Z,83.68
2018-01-20T15:47:16.279Z,83.86
2018-01-20T15:49:43.789Z,83.57
2018-01-20T15:52:11.312Z,83.90
2018-01-20T15:54:38.952Z,83.84
2018-01-20T15:57:06.473Z,84.36
2018-01-20T15:59:34.028Z,84.75
2018-01-20T16:02:01.536Z,85.08
2018-01-20T16:04:29.068Z,85.52
2018-01-20T16:06:56.659Z,85.58
2018-01-20T16:09:24.203Z,85.91
2018-01-20T16:11:51.785Z,85.99
2018-01-20T16:14:19.326Z,85.93
2018-01-20T16:16:46.884Z,85.76
2018-01-20T16:19:14.392Z,85.73
2018-01-20T16:21:41.919Z,85.62
2018-01-20T16:24:09.568Z,85.90
2018-01-20T16:26:37.073Z,85.89
2018-01-20T16:29:04.576Z,85.63
2018-01-20T16:31:32.136Z,85.70
2018-01-20T16:33:59.699Z,85.52
2018-01-20T16:36:27.780Z,85.88
2018-01-20T16:38:55.290Z,85.92
2018-01-20T16:41:22.976Z,85.92
2018-01-20T16:43:50.496Z,86.15
2018-01-20T16:46:18.011Z,86.14
2018-01-20T16:48:45.556Z,86.18
2018-01-20T16:51:13.112Z,86.05
2018-01-20T16:53:40.627Z,86.33
2018-01-20T16:56:08.182Z,86.35
2018-01-20T16:58:35.774Z,86.78
2018-01-20T17:01:03.287Z,87.04
2018-01-20T17:03:30.818Z,87.13
2018-01-20T17:05:58.330Z,86.75
2018-01-20T17:08:26.897Z,86.46
2018-01-20T17:10:54.422Z,85.86
2018-01-20T17:13:21.980Z,85.94
2018-01-20T17:15:49.528Z,85.89
2018-01-20T17:18:17.082Z,85.99
2018-01-20T17:20:44.632Z,85.92
2018-01-20T17:23:12.227Z,86.04
2018-01-20T17:25:39.789Z,86.27
2018-01-20T17:28:07.444Z,86.23
2018-01-20T17:30:34.949Z,86.51
2018-01-20T17:33:02.458Z,86.50
2018-01-20T17:35:30.102Z,86.53
2018-01-20T17:37:57.641Z,86.33
2018-01-20T17:40:25.195Z,85.89
2018-01-20T17:42:52.733Z,85.82
2018-01-20T17:45:20.261Z,86.44
2018-01-20T17:47:47.797Z,86.96
2018-01-20T17:50:15.354Z,87.17
2018-01-20T17:52:42.876Z,87.26
2018-01-20T17:55:10.415Z,87.56
2018-01-20T17:57:37.950Z,87.59
2018-01-20T18:00:05.452Z,87.65
2018-01-20T18:02:33.152Z,87.36
2018-01-20T18:05:00.726Z,86.73
2018-01-20T18:07:28.232Z,87.29
2018-01-20T18:09:55.732Z,87.77
2018-01-20T18:12:23.287Z,88.42
2018-01-20T18:14:50.841Z,88.68
2018-01-20T18:17:18.442Z,88.92
2018-01-20T18:19:45.996Z,89.46
2018-01-20T18:22:13.733Z,89.62
2018-01-20T18:24:41.303Z,90.27
2018-01-20T18:27:08.949Z,89.83
2018-01-20T18:29:36.510Z,89.85
2018-01-20T18:32:04.036Z,89.93
2018-01-20T18:34:31.718Z,90.07
2018-01-20T18:36:59.239Z,90.31
2018-01-20T18:39:26.768Z,90.51
2018-01-20T18:41:54.358Z,90.76
2018-01-20T18:44:21.916Z,90.74
2018-01-20T18:46:49.425Z,90.74
2018-01-20T18:49:17.219Z,90.87
2018-01-20T18:51:44.746Z,91.01
2018-01-20T18:54:12.261Z,91.06
2018-01-20T18:56:39.908Z,91.24
2018-01-20T18:59:07.436Z,91.30
2018-01-20T19:01:34.986Z,91.47
2018-01-20T19:04:02.520Z,91.45
2018-01-20T19:06:30.221Z,91.42
2018-01-20T19:08:57.721Z,91.41
2018-01-20T19:11:25.224Z,91.61
2018-01-20T19:13:52.776Z,91.62
2018-01-20T19:16:20.288Z,91.78
2018-01-20T19:18:47.797Z,91.80
2018-01-20T19:21:15.344Z,91.89
2018-01-20T19:23:42.863Z,92.10
2018-01-20T19:26:10.398Z,92.04
2018-01-20T19:28:38.150Z,92.02
2018-01-20T19:31:05.689Z,92.06
2018-01-20T19:33:33.217Z,92.22
2018-01-20T19:36:00.818Z,92.39
2018-01-20T19:38:28.391Z,92.65
2018-01-20T19:40:55.900Z,92.66
2018-01-20T19:43:23.482Z,92.54
2018-01-20T19:45:50.984Z,92.34
2018-01-20T19:48:18.613Z,92.22
2018-01-20T19:50:46.171Z,92.14
2018-01-20T19:53:13.700Z,92.40
2018-01-20T19:55:41.297Z,92.35
2018-01-20T19:58:09.793Z,92.12
2018-01-20T20:00:37.351Z,91.97
2018-01-20T20:03:04.878Z,91.92
2018-01-20T20:05:32.431Z,91.99
2018-01-20T20:07:59.982Z,92.04
2018-01-20T20:10:27.550Z,92.05
2018-01-20T20:12:55.070Z,91.92
2018-01-20T20:15:22.719Z,91.90
2018-01-20T20:17:50.252Z,91.66
2018-01-20T20:20:17.781Z,91.78
2018-01-20T20:22:45.710Z,91.79
2018-01-20T20:25:13.230Z,91.64
2018-01-20T20:27:40.900Z,91.42
2018-01-20T20:30:08.424Z,91.34
2018-01-20T20:32:35.970Z,91.54
2018-01-20T20:35:03.509Z,91.38
2018-01-20T20:37:31.017Z,91.34
2018-01-20T20:39:58.544Z,91.41
2018-01-20T20:42:26.096Z,91.50
2018-01-20T20:44:53.631Z,91.73
2018-01-20T20:47:21.283Z,91.54
2018-01-20T20:49:49.081Z,91.06
2018-01-20T20:52:16.619Z,90.85
2018-01-20T20:54:44.190Z,90.95
2018-01-20T20:57:11.716Z,90.68
2018-01-20T20:59:39.239Z,90.31
2018-01-20T21:02:06.772Z,90.46
2018-01-20T21:04:34.735Z,90.49
2018-01-20T21:07:02.261Z,90.58
2018-01-20T21:09:30.039Z,90.54
2018-01-20T21:11:57.549Z,91.95
2018-01-20T21:14:25.136Z,90.74
2018-01-20T21:16:52.657Z,90.21
2018-01-20T21:19:20.799Z,90.22
2018-01-20T21:21:49.852Z,90.81
2018-01-20T21:24:17.417Z,89.99
2018-01-20T21:26:44.949Z,90.08
2018-01-20T21:29:12.558Z,90.35
2018-01-20T21:31:42.498Z,90.48
2018-01-20T21:34:12.074Z,90.69
2018-01-20T21:36:39.769Z,91.32
2018-01-20T21:39:07.413Z,90.90
2018-01-20T21:41:34.973Z,90.80
2018-01-20T21:44:02.493Z,90.80
2018-01-20T21:46:29.989Z,91.30
2018-01-20T21:48:57.630Z,91.58
2018-01-20T21:51:25.161Z,91.52
2018-01-20T21:53:52.697Z,90.87
2018-01-20T21:56:20.242Z,90.54
2018-01-20T21:58:47.865Z,91.12
2018-01-20T22:01:15.402Z,90.62
2018-01-20T22:03:42.952Z,89.53
2018-01-20T22:06:10.554Z,89.51
2018-01-20T22:08:38.102Z,89.84
2018-01-20T22:11:05.665Z,90.24
2018-01-20T22:13:33.324Z,90.42
2018-01-20T22:16:00.846Z,90.71
2018-01-20T22:18:28.572Z,90.96
2018-01-20T22:20:56.086Z,91.09
2018-01-20T22:23:23.602Z,91.38
2018-01-20T22:25:51.150Z,91.42
2018-01-20T22:28:18.801Z,91.61
2018-01-20T22:30:46.328Z,91.63
2018-01-20T22:33:13.917Z,91.86
2018-01-20T22:35:41.442Z,91.95
2018-01-20T22:38:10.912Z,92.16
2018-01-20T22:40:40.280Z,92.30
2018-01-20T22:43:09.468Z,92.45
2018-01-20T22:45:38.886Z,92.68
2018-01-20T22:48:06.968Z,92.86
2018-01-20T22:50:34.596Z,92.79
2018-01-20T22:53:02.125Z,92.82
2018-01-20T22:55:29.636Z,93.04
2018-01-20T22:57:57.167Z,93.25
2018-01-20T23:00:24.749Z,93.31
2018-01-20T23:02:52.265Z,93.22
2018-01-20T23:05:19.781Z,93.56
2018-01-20T23:07:47.331Z,93.62
2018-01-20T23:10:14.859Z,93.26
2018-01-20T23:12:42.425Z,93.02
2018-01-20T23:15:10.087Z,92.97
2018-01-20T23:17:37.626Z,93.37
2018-01-20T23:20:05.421Z,93.85
2018-01-20T23:22:32.944Z,93.95
2018-01-20T23:25:00.450Z,94.58
2018-01-20T23:27:28.210Z,94.30
2018-01-20T23:29:55.736Z,93.54
2018-01-20T23:32:23.346Z,93.39
2018-01-20T23:34:50.891Z,93.66
2018-01-20T23:37:18.432Z,93.50
2018-01-20T23:39:45.959Z,92.83
2018-01-20T23:42:13.482Z,92.49
2018-01-20T23:44:40.996Z,92.76
2018-01-20T23:47:08.564Z,92.82
2018-01-20T23:49:36.090Z,92.85
2018-01-20T23:52:03.633Z,92.87
2018-01-20T23:54:31.335Z,92.97
2018-01-20T23:56:58.858Z,93.06
2018-01-20T23:59:26.372Z,93.09
